Time;durP1;ratioP1;P1;durP2;ratioP2;P2;SDS_P1;SDS_P2;PMS_P1;PMS_P2;Temp;Humidity;BMP_temperature;BMP_pressure;BME280_temperature;BME280_humidity;BME280_pressure;Samples;Min_cycle;Max_cycle;Signal;HPM_P1;HPM_P2
2023/08/11 00:02:22;;;;;;;1.13;1.03;;;18.70;63.10;17.80;97033.00;;;;5074317;28;20301;-79
2023/08/11 00:04:51;;;;;;;1.77;1.40;;;18.70;63.30;17.70;97024.00;;;;5063231;28;20216;-79
2023/08/11 00:07:18;;;;;;;1.30;1.20;;;18.70;63.50;17.70;97031.00;;;;5065927;28;20230;-79
2023/08/11 00:09:45;;;;;;;1.30;1.20;;;18.60;63.50;17.70;97022.00;;;;5060446;28;20203;-80
2023/08/11 00:12:13;;;;;;;1.10;1.00;;;18.60;63.60;17.70;97025.00;;;;5064488;28;20204;-79
2023/08/11 00:14:40;;;;;;;1.40;1.30;;;18.60;63.70;17.70;97030.00;;;;5063944;28;20234;-78
2023/08/11 00:17:07;;;;;;;1.20;1.10;;;18.60;63.80;17.70;97022.00;;;;5067903;28;20287;-78
2023/08/11 00:19:34;;;;;;;1.60;1.00;;;18.60;63.70;17.70;97021.00;;;;5074043;28;20305;-78
2023/08/11 00:22:03;;;;;;;1.40;1.27;;;18.60;63.60;17.70;97012.00;;;;5065822;28;20201;-78
2023/08/11 00:24:30;;;;;;;1.40;1.30;;;18.60;63.70;17.70;97014.00;;;;5067617;28;20307;-78
2023/08/11 00:26:58;;;;;;;1.30;1.20;;;18.60;63.80;17.60;97017.00;;;;5073784;28;20572;-78
2023/08/11 00:29:25;;;;;;;1.23;1.10;;;18.50;63.80;17.60;97017.00;;;;5066262;28;20196;-80
2023/08/11 00:31:53;;;;;;;2.00;1.37;;;18.50;63.90;17.60;97018.00;;;;5068714;28;20204;-78
2023/08/11 00:34:20;;;;;;;1.40;1.30;;;18.50;64.00;17.60;97013.00;;;;5075583;28;20253;-80
2023/08/11 00:36:48;;;;;;;3.73;1.23;;;18.50;64.00;17.60;97012.00;;;;5076948;28;20212;-79
2023/08/11 00:39:16;;;;;;;1.40;1.30;;;18.50;64.00;17.50;97008.00;;;;5074806;28;20253;-79
2023/08/11 00:41:44;;;;;;;1.17;1.17;;;18.40;64.00;17.50;97018.00;;;;5060696;28;20204;-79
2023/08/11 00:44:11;;;;;;;2.63;1.27;;;18.40;64.10;17.50;97024.00;;;;5078929;28;20304;-78
2023/08/11 00:46:39;;;;;;;1.30;1.20;;;18.40;65.00;17.50;97015.00;;;;5076992;28;20222;-79
2023/08/11 00:49:06;;;;;;;1.33;1.23;;;18.40;64.50;17.50;97009.00;;;;5052175;28;20204;-79
2023/08/11 00:51:34;;;;;;;1.73;1.57;;;18.40;64.50;17.50;97015.00;;;;5075730;28;20278;-79
2023/08/11 00:54:01;;;;;;;1.30;1.20;;;18.40;64.40;17.40;97018.00;;;;5072953;28;20709;-79
2023/08/11 00:56:30;;;;;;;1.30;1.20;;;18.40;64.30;17.40;97026.00;;;;5067517;28;20282;-79
2023/08/11 00:59:00;;;;;;;2.37;1.30;;;18.40;64.40;17.40;97017.00;;;;5069222;28;20287;-78
2023/08/11 01:01:28;;;;;;;1.77;1.47;;;18.30;64.30;17.30;97015.00;;;;5068487;28;20246;-79
2023/08/11 01:03:57;;;;;;;1.30;1.20;;;18.30;64.40;17.30;97012.00;;;;5074496;28;20767;-78
2023/08/11 01:06:35;;;;;;;1.40;1.30;;;18.30;64.60;17.30;97017.00;;;;5073928;28;20200;-79
2023/08/11 01:09:09;;;;;;;1.43;1.33;;;18.20;64.80;17.20;97022.00;;;;5069696;28;20275;-78
2023/08/11 01:11:56;;;;;;;1.50;1.33;;;18.20;64.70;17.20;97022.00;;;;5076530;28;20780;-79
2023/08/11 01:14:48;;;;;;;1.50;1.30;;;18.20;64.80;17.10;97014.00;;;;5069074;28;20769;-78
2023/08/11 01:17:18;;;;;;;1.77;1.40;;;18.20;64.80;17.10;97021.00;;;;5065734;28;20207;-78
2023/08/11 01:19:47;;;;;;;1.40;1.30;;;18.10;64.50;17.10;97024.00;;;;5067101;28;20196;-78
2023/08/11 01:22:19;;;;;;;1.50;1.40;;;18.10;64.50;17.10;97024.00;;;;5061093;28;20256;-78
2023/08/11 01:24:49;;;;;;;1.93;1.50;;;18.10;64.70;17.00;97018.00;;;;5060054;28;20283;-79
2023/08/11 01:27:16;;;;;;;1.50;1.40;;;18.00;64.80;17.00;97012.00;;;;5034468;28;20217;-79
2023/08/11 01:29:44;;;;;;;1.60;1.50;;;18.00;65.00;17.00;97017.00;;;;5075051;28;20208;-79
2023/08/11 01:32:12;;;;;;;2.67;1.40;;;18.00;65.10;17.00;97016.00;;;;5074974;28;20200;-78
2023/08/11 01:34:41;;;;;;;2.40;1.50;;;17.90;65.10;16.90;97019.00;;;;5075149;28;20226;-79
2023/08/11 01:37:08;;;;;;;1.67;1.57;;;17.90;65.10;16.90;97014.00;;;;5058058;28;20549;-78
2023/08/11 01:39:36;;;;;;;3.03;1.90;;;17.90;65.00;16.90;97014.00;;;;5076030;28;20264;-78
2023/08/11 01:42:06;;;;;;;1.57;1.47;;;17.90;65.10;16.90;97017.00;;;;5066295;28;20279;-79
2023/08/11 01:44:34;;;;;;;1.50;1.40;;;17.90;65.30;16.80;97021.00;;;;5061273;28;20457;-78
2023/08/11 01:47:04;;;;;;;1.60;1.50;;;17.80;65.30;16.80;97021.00;;;;5058543;28;20200;-78
2023/08/11 01:49:32;;;;;;;1.67;1.57;;;17.80;65.40;16.80;97011.00;;;;5060924;28;20211;-78
2023/08/11 01:51:59;;;;;;;1.80;1.50;;;17.80;65.30;16.80;97022.00;;;;5075517;28;20708;-78
2023/08/11 01:54:29;;;;;;;1.40;1.30;;;17.80;65.40;16.80;97017.00;;;;5065507;28;20252;-78
2023/08/11 01:56:58;;;;;;;1.60;1.50;;;17.70;65.40;16.70;97016.00;;;;5077706;28;20227;-78
2023/08/11 01:59:26;;;;;;;1.70;1.40;;;17.70;65.40;16.70;97020.00;;;;5086630;28;20219;-78
2023/08/11 02:01:53;;;;;;;1.57;1.47;;;17.70;65.50;16.70;97017.00;;;;5085178;28;20263;-78
2023/08/11 02:04:21;;;;;;;1.60;1.20;;;17.70;65.60;16.70;97017.00;;;;5078282;28;20236;-79
2023/08/11 02:06:49;;;;;;;2.67;1.80;;;17.60;65.60;16.70;97014.00;;;;5074496;28;20201;-77
2023/08/11 02:09:16;;;;;;;1.73;1.63;;;17.60;65.60;16.60;97020.00;;;;5084732;28;20229;-78
2023/08/11 02:11:44;;;;;;;1.40;1.27;;;17.60;65.50;16.60;97018.00;;;;5077354;28;20223;-78
2023/08/11 02:14:12;;;;;;;2.97;1.83;;;17.60;65.60;16.60;97019.00;;;;5066077;28;20284;-79
2023/08/11 02:16:41;;;;;;;1.40;1.30;;;17.60;65.60;16.50;97013.00;;;;5081860;28;20208;-78
2023/08/11 02:19:08;;;;;;;1.70;1.60;;;17.60;65.60;16.50;97012.00;;;;5083817;28;20229;-78
2023/08/11 02:21:38;;;;;;;1.60;1.50;;;17.50;65.50;16.50;97012.00;;;;5068357;28;20192;-78
2023/08/11 02:24:07;;;;;;;1.30;1.20;;;17.50;65.60;16.40;97016.00;;;;5081871;28;20246;-79
2023/08/11 02:26:34;;;;;;;1.80;1.70;;;17.50;65.70;16.40;97008.00;;;;5092520;28;20223;-79
2023/08/11 02:29:03;;;;;;;1.50;1.40;;;17.40;66.40;16.40;97018.00;;;;5066999;28;20220;-79
2023/08/11 02:31:31;;;;;;;1.70;1.60;;;17.40;65.70;16.40;97020.00;;;;5074404;28;20196;-79
2023/08/11 02:34:01;;;;;;;1.47;1.37;;;17.40;65.70;16.30;97019.00;;;;5064824;28;20227;-79
2023/08/11 02:36:28;;;;;;;1.50;1.40;;;17.40;65.90;16.30;97019.00;;;;5070601;28;20227;-80
2023/08/11 02:38:55;;;;;;;1.67;1.57;;;17.30;65.90;16.30;97012.00;;;;5053219;28;20196;-79
2023/08/11 02:41:23;;;;;;;1.87;1.70;;;17.30;66.10;16.30;97022.00;;;;5068494;28;20204;-79
2023/08/11 02:43:51;;;;;;;2.23;1.77;;;17.30;66.30;16.30;97017.00;;;;5064915;28;20557;-79
2023/08/11 02:46:18;;;;;;;2.67;1.93;;;17.30;66.60;16.20;97013.00;;;;5059756;28;20268;-79
2023/08/11 02:48:45;;;;;;;2.10;1.90;;;17.30;66.80;16.20;97016.00;;;;5069208;28;20213;-79
2023/08/11 02:51:14;;;;;;;1.70;1.60;;;17.20;66.90;16.30;97012.00;;;;5058349;28;20223;-78
2023/08/11 02:53:42;;;;;;;1.90;1.80;;;17.20;67.10;16.30;97015.00;;;;5072469;28;20208;-79
2023/08/11 02:56:11;;;;;;;2.00;1.80;;;17.20;67.20;16.30;97023.00;;;;5063775;28;20290;-79
2023/08/11 02:58:38;;;;;;;1.70;1.60;;;17.30;67.20;16.30;97009.00;;;;5072653;28;20232;-79
2023/08/11 03:01:06;;;;;;;1.70;1.60;;;17.30;67.00;16.30;97006.00;;;;5058846;28;20279;-79
2023/08/11 03:03:34;;;;;;;2.03;1.70;;;17.20;67.00;16.30;97006.00;;;;5057759;28;20197;-78
2023/08/11 03:06:04;;;;;;;1.80;1.70;;;17.20;66.90;16.20;97006.00;;;;5058036;28;20204;-79
2023/08/11 03:08:33;;;;;;;1.80;1.60;;;17.20;66.90;16.20;97005.00;;;;5051601;28;20232;-79
2023/08/11 03:11:00;;;;;;;1.77;1.67;;;17.20;67.00;16.20;97003.00;;;;5067533;28;20188;-79
2023/08/11 03:13:28;;;;;;;1.60;1.50;;;17.20;67.00;16.20;97001.00;;;;5064123;28;20283;-79
2023/08/11 03:15:56;;;;;;;2.17;2.07;;;17.20;67.00;16.20;97008.00;;;;5063170;28;20220;-79
2023/08/11 03:18:23;;;;;;;2.23;2.00;;;17.20;66.90;16.20;97004.00;;;;5072571;28;20227;-79
2023/08/11 03:20:52;;;;;;;1.93;1.73;;;17.20;67.00;16.20;97000.00;;;;5058193;28;20199;-79
2023/08/11 03:23:20;;;;;;;2.67;2.13;;;17.20;67.10;16.10;97002.00;;;;5070545;28;20203;-78
2023/08/11 03:25:48;;;;;;;2.30;1.87;;;17.10;67.00;16.20;97003.00;;;;5063823;28;20216;-80
2023/08/11 03:28:16;;;;;;;2.30;2.00;;;17.10;67.80;16.10;97013.00;;;;5072827;28;20230;-79
2023/08/11 03:30:43;;;;;;;1.70;1.60;;;17.10;67.70;16.10;97008.00;;;;5062200;28;20665;-79
2023/08/11 03:33:10;;;;;;;1.57;1.47;;;17.10;66.90;16.10;97009.00;;;;5060122;28;20721;-79
2023/08/11 03:35:37;;;;;;;1.80;1.70;;;17.10;66.90;16.00;97007.00;;;;5053843;28;20220;-79
2023/08/11 03:38:05;;;;;;;1.80;1.60;;;17.10;67.00;16.00;97009.00;;;;5058727;28;20200;-79
2023/08/11 03:40:33;;;;;;;2.43;1.80;;;17.00;67.10;16.00;97008.00;;;;5071146;28;20257;-79
2023/08/11 03:43:03;;;;;;;3.20;2.03;;;17.00;67.10;16.00;97014.00;;;;5061415;28;20279;-79
2023/08/11 03:45:30;;;;;;;1.80;1.70;;;17.00;67.40;16.00;97019.00;;;;5064342;28;20220;-80
2023/08/11 03:47:57;;;;;;;2.27;1.80;;;17.00;67.40;16.00;97020.00;;;;5057089;28;20246;-78
2023/08/11 03:50:24;;;;;;;1.70;1.60;;;17.00;67.30;16.00;97013.00;;;;5066289;28;20207;-78
2023/08/11 03:52:52;;;;;;;2.20;2.00;;;17.00;67.30;15.90;97017.00;;;;5076049;28;20203;-77
2023/08/11 03:55:20;;;;;;;2.03;1.87;;;17.00;68.10;15.90;97022.00;;;;5074616;28;20710;-78
2023/08/11 03:57:47;;;;;;;2.03;1.83;;;16.90;67.30;15.90;97016.00;;;;5054310;28;20189;-78
2023/08/11 04:00:19;;;;;;;2.00;1.90;;;17.00;67.30;15.90;97025.00;;;;5051577;28;20274;-78
2023/08/11 04:02:46;;;;;;;1.90;1.80;;;16.90;67.30;15.90;97029.00;;;;5066902;28;20204;-79
2023/08/11 04:05:14;;;;;;;2.87;1.90;;;16.90;67.20;15.90;97029.00;;;;5072136;28;20212;-78
2023/08/11 04:07:42;;;;;;;2.13;2.00;;;16.90;67.30;15.80;97034.00;;;;5072457;28;20646;-78
2023/08/11 04:10:11;;;;;;;3.47;1.90;;;16.90;67.30;15.80;97035.00;;;;5071265;28;20230;-79
2023/08/11 04:12:39;;;;;;;1.90;1.80;;;16.80;67.30;15.80;97051.00;;;;5068878;28;20205;-79
2023/08/11 04:15:07;;;;;;;1.83;1.73;;;16.80;68.00;15.80;97046.00;;;;5061793;28;20220;-79
2023/08/11 04:17:36;;;;;;;2.03;1.93;;;16.80;67.30;15.80;97042.00;;;;5066618;28;20213;-79
2023/08/11 04:20:12;;;;;;;4.47;1.90;;;16.80;67.40;15.70;97039.00;;;;5070343;28;20203;-79
2023/08/11 04:22:39;;;;;;;2.27;2.03;;;16.80;67.50;15.70;97039.00;;;;5073150;28;20204;-79
2023/08/11 04:25:10;;;;;;;2.67;1.80;;;16.80;67.60;15.70;97042.00;;;;5072067;28;20228;-79
2023/08/11 04:27:39;;;;;;;2.07;1.97;;;16.70;67.60;15.70;97052.00;;;;5074813;28;20200;-79
2023/08/11 04:30:07;;;;;;;2.27;2.10;;;16.70;67.70;15.70;97044.00;;;;5063161;28;20199;-79
2023/08/11 04:32:36;;;;;;;2.03;1.93;;;16.70;67.80;15.70;97053.00;;;;5077474;28;20226;-78
2023/08/11 04:35:06;;;;;;;2.43;2.10;;;16.70;68.00;15.70;97056.00;;;;5076504;28;20242;-79
2023/08/11 04:37:33;;;;;;;3.37;1.90;;;16.70;68.00;15.70;97059.00;;;;5076237;28;20631;-79
2023/08/11 04:40:05;;;;;;;2.53;2.20;;;16.70;68.00;15.70;97053.00;;;;5077154;28;20211;-78
2023/08/11 04:42:33;;;;;;;2.37;2.10;;;16.70;68.00;15.70;97063.00;;;;5076670;28;20557;-79
2023/08/11 04:45:00;;;;;;;3.17;2.50;;;16.70;68.10;15.60;97064.00;;;;5058932;28;20286;-78
2023/08/11 04:47:28;;;;;;;2.20;2.00;;;16.70;68.30;15.70;97067.00;;;;5063764;28;20196;-78
2023/08/11 04:49:57;;;;;;;2.83;2.40;;;16.70;68.50;15.70;97067.00;;;;5054921;28;20216;-78
2023/08/11 04:52:24;;;;;;;2.73;2.47;;;16.70;68.70;15.70;97073.00;;;;5071305;28;20200;-78
2023/08/11 04:54:53;;;;;;;3.43;2.33;;;16.70;68.80;15.70;97060.00;;;;5070915;28;20319;-78
2023/08/11 04:57:20;;;;;;;2.87;2.53;;;16.70;69.10;15.70;97067.00;;;;5055358;28;20215;-77
2023/08/11 04:59:49;;;;;;;2.80;2.37;;;16.70;69.40;15.80;97076.00;;;;5075275;28;20223;-78
2023/08/11 05:02:16;;;;;;;2.43;2.23;;;16.70;69.40;15.80;97073.00;;;;5071736;28;20200;-79
2023/08/11 05:04:43;;;;;;;3.00;2.43;;;16.70;69.30;15.80;97069.00;;;;5072315;28;20222;-79
2023/08/11 05:07:12;;;;;;;3.73;2.30;;;16.70;69.40;15.80;97065.00;;;;5074372;28;20202;-78
2023/08/11 05:09:40;;;;;;;2.50;2.30;;;16.80;69.80;15.80;97074.00;;;;5073560;28;20314;-79
2023/08/11 05:12:08;;;;;;;2.70;2.50;;;16.80;69.90;15.90;97072.00;;;;5074310;28;20204;-79
2023/08/11 05:14:35;;;;;;;2.57;2.37;;;16.80;70.10;15.90;97064.00;;;;5065341;28;20220;-78
2023/08/11 05:17:02;;;;;;;2.50;2.30;;;16.80;70.20;16.00;97067.00;;;;5074314;28;20203;-79
2023/08/11 05:19:31;;;;;;;2.70;2.50;;;16.90;70.30;16.00;97071.00;;;;5073870;28;20200;-79
2023/08/11 05:21:58;;;;;;;3.07;2.17;;;16.90;70.30;16.00;97071.00;;;;5069187;28;20202;-78
2023/08/11 05:24:27;;;;;;;2.20;2.00;;;16.90;70.30;16.10;97071.00;;;;5071691;28;20302;-79
2023/08/11 05:26:57;;;;;;;2.10;2.00;;;17.00;70.50;16.10;97061.00;;;;5068497;28;20279;-78
2023/08/11 05:29:24;;;;;;;2.70;2.50;;;17.00;70.50;16.10;97059.00;;;;5065494;28;20224;-79
2023/08/11 05:31:52;;;;;;;2.53;2.43;;;17.00;70.80;16.20;97065.00;;;;5065869;28;20215;-79
2023/08/11 05:34:19;;;;;;;2.53;2.33;;;17.00;71.00;16.20;97069.00;;;;5065718;28;20221;-80
2023/08/11 05:36:46;;;;;;;2.90;2.70;;;17.10;71.20;16.20;97069.00;;;;5065071;28;20214;-80
2023/08/11 05:39:14;;;;;;;2.80;2.60;;;17.10;71.30;16.30;97066.00;;;;5066475;28;20209;-79
2023/08/11 05:41:42;;;;;;;2.70;2.50;;;17.10;71.40;16.30;97059.00;;;;5057852;28;20197;-79
2023/08/11 05:44:10;;;;;;;2.73;2.53;;;17.20;71.70;16.40;97071.00;;;;5065893;28;20225;-78
2023/08/11 05:46:37;;;;;;;2.60;2.40;;;17.20;71.80;16.40;97069.00;;;;5059217;28;20681;-79
2023/08/11 05:49:04;;;;;;;2.80;2.60;;;17.30;71.90;16.50;97074.00;;;;5068456;28;20232;-79
2023/08/11 05:51:32;;;;;;;3.77;2.57;;;17.30;72.00;16.60;97068.00;;;;5065923;28;20279;-78
2023/08/11 05:53:59;;;;;;;3.20;3.00;;;17.40;72.20;16.60;97069.00;;;;5049227;28;20234;-79
2023/08/11 05:56:26;;;;;;;2.77;2.57;;;17.50;72.40;16.70;97073.00;;;;5066663;28;20193;-79
2023/08/11 05:58:55;;;;;;;2.80;2.60;;;17.50;72.50;16.80;97065.00;;;;5065140;28;20206;-79
2023/08/11 06:01:22;;;;;;;2.70;2.50;;;17.60;72.80;16.80;97072.00;;;;5066612;28;20283;-79
2023/08/11 06:03:50;;;;;;;3.30;3.00;;;17.60;72.80;16.90;97073.00;;;;5065048;28;20665;-79
2023/08/11 06:06:17;;;;;;;2.60;2.40;;;17.70;72.90;17.00;97073.00;;;;5071120;28;20192;-79
2023/08/11 06:08:45;;;;;;;3.47;3.17;;;17.70;73.80;17.00;97070.00;;;;5066135;28;20230;-78
2023/08/11 06:11:13;;;;;;;3.23;2.93;;;17.80;73.20;17.10;97076.00;;;;5070996;28;20200;-80
2023/08/11 06:13:41;;;;;;;3.37;3.10;;;17.80;73.30;17.20;97079.00;;;;5066804;28;20677;-79
2023/08/11 06:16:10;;;;;;;2.90;2.50;;;17.90;73.50;17.20;97076.00;;;;5071545;28;20683;-81
2023/08/11 06:18:37;;;;;;;3.57;3.30;;;18.00;73.80;17.30;97078.00;;;;5065290;28;20745;-81
2023/08/11 06:21:05;;;;;;;2.87;2.67;;;18.00;73.80;17.40;97085.00;;;;5071199;28;20193;-81
2023/08/11 06:23:32;;;;;;;3.50;3.07;;;18.10;73.80;17.50;97077.00;;;;5069735;28;20284;-80
2023/08/11 06:26:02;;;;;;;3.47;3.27;;;18.20;73.80;17.60;97080.00;;;;5056883;28;20296;-79
2023/08/11 06:28:29;;;;;;;3.13;2.93;;;18.30;73.90;17.70;97086.00;;;;5064585;28;20199;-80
2023/08/11 06:30:57;;;;;;;3.77;3.20;;;18.40;73.90;17.80;97082.00;;;;5050402;28;20196;-80
2023/08/11 06:33:26;;;;;;;3.33;3.00;;;18.50;74.00;17.90;97088.00;;;;5070831;28;20216;-78
2023/08/11 06:35:54;;;;;;;3.57;3.33;;;18.50;74.70;17.90;97084.00;;;;5062273;28;20218;-78
2023/08/11 06:38:23;;;;;;;3.30;3.10;;;18.60;73.90;18.00;97088.00;;;;5067125;28;20227;-79
2023/08/11 06:40:50;;;;;;;3.20;3.00;;;18.70;73.80;18.10;97089.00;;;;5060411;28;20192;-80
2023/08/11 06:43:18;;;;;;;4.13;3.80;;;18.80;73.70;18.20;97090.00;;;;5065846;28;20223;-80
2023/08/11 06:45:45;;;;;;;4.07;3.77;;;18.80;73.60;18.30;97090.00;;;;5065437;28;20307;-79
2023/08/11 06:48:14;;;;;;;4.60;4.13;;;18.90;73.60;18.40;97093.00;;;;5063985;28;20210;-80
2023/08/11 06:50:43;;;;;;;4.10;3.70;;;19.00;73.70;18.50;97098.00;;;;5070109;28;20220;-80
2023/08/11 06:53:11;;;;;;;3.57;3.27;;;19.10;74.40;18.60;97090.00;;;;5071642;28;20235;-80
2023/08/11 06:55:38;;;;;;;3.67;3.37;;;19.20;73.70;18.70;97093.00;;;;5065245;28;20266;-80
2023/08/11 06:58:06;;;;;;;5.03;3.43;;;19.30;73.80;18.80;97096.00;;;;5062005;28;20203;-78
2023/08/11 07:00:33;;;;;;;3.27;2.87;;;19.40;73.70;18.90;97098.00;;;;5070917;28;20204;-79
2023/08/11 07:03:00;;;;;;;3.67;3.37;;;19.50;74.40;19.00;97098.00;;;;5060663;28;20576;-79
2023/08/11 07:05:28;;;;;;;3.47;3.20;;;19.60;73.60;19.10;97102.00;;;;5065591;28;20289;-80
2023/08/11 07:07:58;;;;;;;3.80;3.50;;;19.70;73.60;19.30;97100.00;;;;5067087;28;20200;-78
2023/08/11 07:10:25;;;;;;;2.77;2.57;;;19.80;74.00;19.40;97104.00;;;;5066321;28;20227;-79
2023/08/11 07:12:52;;;;;;;3.23;2.80;;;19.90;73.80;19.50;97109.00;;;;5075226;28;20238;-79
2023/08/11 07:15:20;;;;;;;3.80;3.40;;;20.10;73.90;19.60;97114.00;;;;5068849;28;20302;-79
2023/08/11 07:17:47;;;;;;;2.40;2.20;;;20.20;73.90;19.80;97116.00;;;;5075166;28;20192;-79
2023/08/11 07:20:15;;;;;;;3.07;2.87;;;20.30;73.80;19.90;97120.00;;;;5063629;28;20283;-79
2023/08/11 07:22:42;;;;;;;2.70;2.50;;;20.40;73.70;20.10;97121.00;;;;5064637;28;20197;-79
2023/08/11 07:25:11;;;;;;;2.77;2.57;;;20.50;73.70;20.20;97126.00;;;;5067728;28;20230;-78
2023/08/11 07:27:38;;;;;;;2.50;2.40;;;20.70;74.00;20.40;97118.00;;;;5075776;28;20202;-78
2023/08/11 07:30:07;;;;;;;2.43;2.27;;;20.80;73.80;20.60;97124.00;;;;5067366;28;20823;-78
2023/08/11 07:32:35;;;;;;;2.50;2.30;;;21.00;73.70;20.70;97119.00;;;;5078125;28;20208;-78
2023/08/11 07:35:02;;;;;;;2.47;2.30;;;21.10;73.50;20.90;97126.00;;;;5075068;28;20318;-78
2023/08/11 07:37:29;;;;;;;2.37;2.17;;;21.30;73.30;21.10;97124.00;;;;5074707;28;20278;-79
2023/08/11 07:39:56;;;;;;;2.57;2.37;;;21.50;73.20;21.30;97126.00;;;;5073181;28;20235;-79
2023/08/11 07:42:25;;;;;;;2.17;1.97;;;21.70;73.10;21.50;97125.00;;;;5057627;28;20705;-79
2023/08/11 07:44:52;;;;;;;2.07;1.87;;;21.80;73.00;21.60;97128.00;;;;5060347;28;20216;-79
2023/08/11 07:47:20;;;;;;;2.47;2.27;;;22.00;72.60;21.80;97132.00;;;;5063463;28;20199;-79
2023/08/11 07:49:48;;;;;;;2.30;2.13;;;22.20;72.50;22.00;97133.00;;;;5074264;28;20217;-80
2023/08/11 07:52:15;;;;;;;2.57;2.37;;;22.40;72.50;22.10;97127.00;;;;5072340;28;20231;-81
2023/08/11 07:54:42;;;;;;;1.97;1.87;;;22.50;71.90;22.30;97129.00;;;;5066195;28;20224;-81
2023/08/11 07:57:11;;;;;;;2.70;2.50;;;22.70;71.50;22.50;97134.00;;;;5076342;28;20238;-80
2023/08/11 07:59:40;;;;;;;2.43;2.23;;;22.80;70.50;22.70;97129.00;;;;5069950;28;20595;-80
2023/08/11 08:02:08;;;;;;;2.73;2.30;;;23.00;70.50;22.80;97133.00;;;;5073411;28;20241;-81
2023/08/11 08:04:36;;;;;;;3.13;2.23;;;23.10;70.50;23.00;97135.00;;;;5071619;28;20266;-80
2023/08/11 08:07:03;;;;;;;2.70;2.23;;;23.30;70.00;23.10;97130.00;;;;5076355;28;20206;-81
2023/08/11 08:09:33;;;;;;;2.00;1.90;;;23.50;70.10;23.30;97136.00;;;;5068865;28;20705;-80
2023/08/11 08:12:02;;;;;;;2.10;2.00;;;23.60;70.10;23.50;97137.00;;;;5076833;28;20252;-81
2023/08/11 08:14:29;;;;;;;2.30;2.20;;;23.80;69.30;23.70;97143.00;;;;5060100;28;20287;-80
2023/08/11 08:17:01;;;;;;;2.47;2.27;;;24.00;69.10;23.90;97134.00;;;;5061629;28;20197;-80
2023/08/11 08:19:29;;;;;;;2.50;2.00;;;24.10;68.60;24.00;97139.00;;;;5065732;28;20211;-80
2023/08/11 08:21:56;;;;;;;2.17;1.97;;;24.30;68.40;24.20;97139.00;;;;5069150;28;20228;-79
2023/08/11 08:24:24;;;;;;;2.33;2.13;;;24.50;68.20;24.30;97136.00;;;;5062074;28;20266;-81
2023/08/11 08:26:51;;;;;;;2.23;2.03;;;24.60;68.00;24.50;97136.00;;;;5062133;28;20203;-80
2023/08/11 08:29:19;;;;;;;2.27;2.17;;;24.80;67.70;24.60;97137.00;;;;5058237;28;20311;-81
2023/08/11 08:31:47;;;;;;;2.20;1.97;;;24.90;66.40;24.80;97139.00;;;;5067545;28;20604;-80
2023/08/11 08:34:16;;;;;;;2.30;2.10;;;25.10;66.20;25.00;97132.00;;;;5070702;28;20232;-79
2023/08/11 08:36:43;;;;;;;2.17;1.97;;;25.20;66.40;25.10;97138.00;;;;5071047;28;20575;-80
2023/08/11 08:39:11;;;;;;;1.97;1.87;;;25.40;66.20;25.30;97143.00;;;;5069606;28;20751;-80
2023/08/11 08:41:41;;;;;;;2.10;2.00;;;25.60;66.00;25.40;97136.00;;;;5074498;28;20250;-79
2023/08/11 08:44:08;;;;;;;1.70;1.60;;;25.70;65.70;25.60;97145.00;;;;5069112;28;20399;-79
2023/08/11 08:46:37;;;;;;;1.90;1.80;;;25.80;65.00;25.80;97146.00;;;;5072319;28;20691;-79
2023/08/11 08:49:21;;;;;;;1.90;1.77;;;26.00;64.40;25.90;97150.00;;;;5068990;28;20220;-79
2023/08/11 08:51:51;;;;;;;1.77;1.67;;;26.20;62.60;26.10;97148.00;;;;5061861;28;20726;-81
2023/08/11 08:54:19;;;;;;;1.80;1.70;;;26.30;62.90;26.30;97150.00;;;;5071520;28;20259;-81
2023/08/11 08:56:48;;;;;;;1.60;1.50;;;26.50;62.30;26.40;97149.00;;;;5072418;28;20637;-79
2023/08/11 08:59:16;;;;;;;1.33;1.23;;;26.60;62.60;26.60;97151.00;;;;5071271;28;20209;-80
2023/08/11 09:01:44;;;;;;;1.80;1.55;;;26.80;62.70;26.70;97139.00;;;;5060179;28;20250;-84
2023/08/11 09:04:12;;;;;;;1.40;1.30;;;26.90;62.50;26.90;97145.00;;;;5057683;28;20234;-82
2023/08/11 09:06:40;;;;;;;2.30;1.60;;;27.10;62.10;27.00;97147.00;;;;5076051;28;20303;-81
2023/08/11 09:09:12;;;;;;;2.47;1.52;;;27.20;62.00;27.10;97148.00;;;;5075103;28;20192;-81
2023/08/11 09:11:40;;;;;;;3.05;1.27;;;27.30;61.70;27.20;97145.00;;;;5071861;28;20208;-82
2023/08/11 09:14:09;;;;;;;1.48;1.38;;;27.50;61.10;27.40;97146.00;;;;5070731;28;20247;-81
2023/08/11 09:16:39;;;;;;;1.92;1.52;;;27.60;60.70;27.50;97149.00;;;;5074635;28;20210;-82
2023/08/11 09:19:10;;;;;;;1.73;1.63;;;27.70;60.40;27.70;97159.00;;;;5054533;28;20200;-82
2023/08/11 09:21:39;;;;;;;1.63;1.52;;;27.90;59.70;27.80;97153.00;;;;5055073;28;20207;-81
2023/08/11 09:24:13;;;;;;;1.60;1.50;;;28.00;59.60;27.90;97147.00;;;;5072979;28;20701;-81
2023/08/11 09:26:45;;;;;;;1.90;1.80;;;28.10;59.20;28.10;97145.00;;;;5081165;28;20201;-81
2023/08/11 09:29:13;;;;;;;1.67;1.50;;;28.30;58.60;28.20;97153.00;;;;5083294;28;20204;-79
2023/08/11 09:31:42;;;;;;;1.38;1.27;;;28.40;58.20;28.30;97149.00;;;;5071443;28;20571;-82
2023/08/11 09:34:15;;;;;;;1.35;1.35;;;28.60;58.10;28.50;97153.00;;;;5080279;28;20713;-83
2023/08/11 09:36:43;;;;;;;1.65;1.55;;;28.70;57.40;28.60;97153.00;;;;5073349;28;20228;-84
2023/08/11 09:39:13;;;;;;;1.33;1.23;;;28.80;57.10;28.70;97147.00;;;;5079927;28;20198;-82
2023/08/11 09:41:43;;;;;;;1.70;1.60;;;28.90;56.30;28.80;97153.00;;;;5088717;28;20208;-82
2023/08/11 09:44:11;;;;;;;1.65;1.50;;;29.10;56.40;28.90;97153.00;;;;5077381;28;20255;-83
2023/08/11 09:46:40;;;;;;;1.80;1.70;;;29.20;56.40;29.10;97145.00;;;;5063332;28;20210;-83
2023/08/11 09:49:08;;;;;;;1.50;1.40;;;29.30;56.20;29.20;97154.00;;;;5078304;28;20204;-83
2023/08/11 09:51:37;;;;;;;1.40;1.30;;;29.40;56.00;29.30;97153.00;;;;5072041;28;20224;-81
2023/08/11 09:54:08;;;;;;;1.50;1.40;;;29.50;55.40;29.40;97150.00;;;;5073878;28;20262;-82
2023/08/11 09:56:41;;;;;;;1.40;1.30;;;29.60;55.60;29.50;97151.00;;;;5059488;28;20200;-82
2023/08/11 09:59:12;;;;;;;1.30;1.30;;;29.80;55.50;29.60;97152.00;;;;5065234;28;20193;-82
2023/08/11 10:01:44;;;;;;;1.40;1.30;;;29.90;55.20;29.70;97151.00;;;;5071442;28;20705;-83
2023/08/11 10:04:24;;;;;;;1.50;1.40;;;30.00;54.80;29.80;97149.00;;;;5082232;28;20216;-83
2023/08/11 10:06:58;;;;;;;1.30;1.20;;;30.10;54.70;29.90;97147.00;;;;5081592;28;20729;-81
2023/08/11 10:09:28;;;;;;;1.40;1.30;;;30.20;54.70;30.10;97149.00;;;;5075849;28;20235;-82
2023/08/11 10:12:00;;;;;;;1.45;1.35;;;30.30;54.10;30.10;97145.00;;;;5081200;28;20227;-83
2023/08/11 10:14:29;;;;;;;1.40;1.30;;;30.40;52.90;30.30;97145.00;;;;5055104;28;20254;-81
2023/08/11 10:16:58;;;;;;;1.27;1.20;;;30.50;52.10;30.40;97153.00;;;;5069925;28;20541;-82
2023/08/11 10:19:26;;;;;;;2.08;1.38;;;30.60;52.60;30.50;97144.00;;;;5074052;28;20279;-82
2023/08/11 10:21:57;;;;;;;1.23;1.17;;;30.70;52.90;30.50;97146.00;;;;5071931;28;20200;-82
2023/08/11 10:24:26;;;;;;;1.25;1.20;;;30.80;53.30;30.60;97147.00;;;;5066525;28;20223;-82
2023/08/11 10:26:54;;;;;;;2.25;1.45;;;30.90;53.20;30.70;97143.00;;;;5069774;28;20291;-82
2023/08/11 10:29:23;;;;;;;1.40;1.30;;;31.00;52.40;30.80;97143.00;;;;5073805;28;20196;-80
2023/08/11 10:32:00;;;;;;;1.30;1.20;;;31.10;51.70;30.90;97144.00;;;;5062680;28;20227;-80
2023/08/11 10:34:28;;;;;;;1.40;1.30;;;31.20;51.30;31.00;97138.00;;;;5066069;28;20266;-82
2023/08/11 10:36:57;;;;;;;1.35;1.25;;;31.30;51.80;31.10;97136.00;;;;5072260;28;20207;-82
2023/08/11 10:39:25;;;;;;;1.08;1.08;;;31.40;51.60;31.20;97139.00;;;;5064363;28;20545;-81
2023/08/11 10:41:53;;;;;;;1.55;1.42;;;31.50;51.70;31.30;97137.00;;;;5054943;28;20207;-82
2023/08/11 10:44:28;;;;;;;3.00;2.10;;;31.60;51.90;31.40;97140.00;;;;5073039;28;20227;-82
2023/08/11 10:47:00;;;;;;;1.45;1.35;;;31.70;51.30;31.40;97136.00;;;;5066315;28;20199;-82
2023/08/11 10:49:35;;;;;;;1.50;1.40;;;31.80;51.40;31.50;97136.00;;;;5065495;28;20204;-82
2023/08/11 10:52:04;;;;;;;1.40;1.30;;;31.80;50.30;31.60;97141.00;;;;5073690;28;20225;-82
2023/08/11 10:54:32;;;;;;;1.33;1.20;;;31.90;51.10;31.60;97139.00;;;;5072298;28;20230;-82
2023/08/11 10:57:02;;;;;;;1.65;1.40;;;32.00;50.70;31.70;97137.00;;;;5073250;28;20192;-82
2023/08/11 10:59:34;;;;;;;1.38;1.27;;;32.00;50.10;31.70;97139.00;;;;5065204;28;20200;-83
2023/08/11 11:02:02;;;;;;;1.08;1.00;;;32.10;49.90;31.70;97131.00;;;;5073809;28;20224;-83